createdAt,value
2023-08-11T00:02:33.549Z,2.70
2023-08-11T00:05:39.464Z,4.82
2023-08-11T00:08:42.201Z,3.72
2023-08-11T00:11:44.865Z,2.58
2023-08-11T00:14:47.686Z,4.43
2023-08-11T00:17:58.696Z,4.80
2023-08-11T00:21:01.484Z,3.53
2023-08-11T00:24:04.432Z,3.65
2023-08-11T00:27:07.886Z,4.55
2023-08-11T00:30:12.283Z,4.37
2023-08-11T00:33:15.324Z,3.35
2023-08-11T00:36:18.408Z,3.38
2023-08-11T00:39:21.088Z,3.83
2023-08-11T00:42:23.737Z,3.60
2023-08-11T00:45:26.592Z,3.20
2023-08-11T00:48:43.922Z,3.78
2023-08-11T00:51:49.954Z,5.35
2023-08-11T00:54:55.320Z,4.05
2023-08-11T00:57:58.186Z,7.43
2023-08-11T01:01:01.195Z,11.40
2023-08-11T01:04:08.979Z,4.35
2023-08-11T01:07:35.179Z,4.07
2023-08-11T01:10:49.555Z,5.82
2023-08-11T01:14:04.909Z,4.30
2023-08-11T01:17:11.196Z,4.87
2023-08-11T01:20:17.424Z,5.82
2023-08-11T01:23:22.245Z,4.22
2023-08-11T01:26:25.317Z,4.28
2023-08-11T01:29:28.199Z,3.78
2023-08-11T01:32:31.100Z,6.47
2023-08-11T01:35:40.675Z,3.38
2023-08-11T01:38:45.010Z,3.42
2023-08-11T01:41:48.080Z,3.97
2023-08-11T01:44:51.006Z,3.53
2023-08-11T01:47:55.013Z,4.10
2023-08-11T01:50:57.880Z,3.47
2023-08-11T01:54:00.684Z,4.25
2023-08-11T01:57:04.044Z,3.58
2023-08-11T02:00:14.539Z,5.90
2023-08-11T02:03:17.258Z,4.20
2023-08-11T02:06:19.976Z,4.13
2023-08-11T02:09:23.679Z,5.60
2023-08-11T02:12:26.516Z,4.75
2023-08-11T02:15:29.467Z,3.63
2023-08-11T02:18:32.539Z,4.60
2023-08-11T02:21:38.749Z,9.15
2023-08-11T02:24:41.373Z,3.97
2023-08-11T02:27:45.067Z,5.68
2023-08-11T02:30:48.621Z,3.50
2023-08-11T02:33:51.303Z,4.73
2023-08-11T02:36:54.036Z,4.57
2023-08-11T02:39:56.944Z,4.82
2023-08-11T02:42:59.747Z,3.72
2023-08-11T02:46:02.565Z,5.32
2023-08-11T02:49:05.387Z,4.87
2023-08-11T02:52:08.571Z,4.18
2023-08-11T02:55:12.733Z,5.70
2023-08-11T02:58:15.562Z,4.72
2023-08-11T03:01:19.060Z,5.78
2023-08-11T03:04:22.010Z,6.40
2023-08-11T03:07:25.521Z,6.70
2023-08-11T03:10:29.899Z,6.70
2023-08-11T03:13:34.180Z,8.73
2023-08-11T03:16:37.318Z,6.20
2023-08-11T03:19:40.172Z,6.90
2023-08-11T03:22:45.257Z,6.68
2023-08-11T03:25:50.494Z,4.93
2023-08-11T03:28:55.880Z,5.20
2023-08-11T03:31:59.513Z,6.00
2023-08-11T03:35:03.981Z,6.70
2023-08-11T03:38:07.349Z,5.95
2023-08-11T03:41:10.924Z,5.75
2023-08-11T03:44:14.097Z,6.78
2023-08-11T03:47:16.915Z,11.63
2023-08-11T03:50:22.749Z,4.90
2023-08-11T03:53:25.408Z,7.18
2023-08-11T03:56:28.066Z,7.75
2023-08-11T03:59:30.915Z,6.20
2023-08-11T04:02:36.442Z,7.35
2023-08-11T04:05:40.530Z,6.13
2023-08-11T04:08:43.655Z,5.75
2023-08-11T04:11:46.423Z,5.93
2023-08-11T04:14:49.288Z,5.40
2023-08-11T04:17:52.828Z,7.88
2023-08-11T04:20:55.640Z,5.27
2023-08-11T04:23:59.179Z,5.90
2023-08-11T04:27:03.118Z,6.10
2023-08-11T04:30:07.197Z,8.50
2023-08-11T04:33:10.597Z,8.07
2023-08-11T04:36:14.558Z,6.83
2023-08-11T04:39:18.222Z,4.20
2023-08-11T04:42:21.490Z,4.35
2023-08-11T04:45:25.192Z,5.85
2023-08-11T04:48:28.101Z,4.60
2023-08-11T04:51:30.992Z,6.30
2023-08-11T04:54:33.892Z,7.47
2023-08-11T04:57:37.239Z,3.45
2023-08-11T05:00:41.834Z,5.30
2023-08-11T05:03:44.690Z,3.55
2023-08-11T05:06:47.488Z,6.10
2023-08-11T05:09:50.644Z,5.60
2023-08-11T05:12:53.477Z,4.28
2023-08-11T05:15:56.298Z,4.28
2023-08-11T05:18:59.020Z,5.63
2023-08-11T05:22:01.832Z,4.20
2023-08-11T05:25:05.743Z,4.10
2023-08-11T05:28:11.122Z,8.88
2023-08-11T05:31:16.649Z,4.85
2023-08-11T05:34:19.340Z,3.45
2023-08-11T05:37:24.229Z,4.37
2023-08-11T05:44:02.518Z,4.40
2023-08-11T05:47:07.306Z,4.60
2023-08-11T05:53:28.486Z,5.43
2023-08-11T05:56:31.311Z,4.88
2023-08-11T05:59:34.165Z,6.95
2023-08-11T06:02:37.010Z,2.95
2023-08-11T06:05:39.786Z,4.53
2023-08-11T06:08:42.569Z,3.83
2023-08-11T06:11:48.122Z,3.83
2023-08-11T06:14:56.758Z,3.10
2023-08-11T06:18:02.781Z,4.03
2023-08-11T06:21:37.228Z,5.60
2023-08-11T06:24:45.848Z,2.47
2023-08-11T06:28:46.058Z,2.38
2023-08-11T06:32:35.482Z,6.30
2023-08-11T06:35:38.632Z,4.85
2023-08-11T06:38:41.535Z,4.30
2023-08-11T06:41:44.604Z,7.50
2023-08-11T06:44:48.497Z,4.10
2023-08-11T06:47:51.215Z,4.13
2023-08-11T06:50:54.030Z,6.90
2023-08-11T06:54:01.043Z,6.50
2023-08-11T06:57:33.996Z,5.83
2023-08-11T07:00:38.128Z,3.17
2023-08-11T07:03:43.891Z,4.57
2023-08-11T07:07:18.362Z,3.35
2023-08-11T07:10:12.898Z,2.17
2023-08-11T07:13:15.750Z,2.00
2023-08-11T07:16:22.174Z,2.30
2023-08-11T07:19:26.296Z,3.97
2023-08-11T07:22:40.666Z,4.15
2023-08-11T07:25:44.436Z,3.85
2023-08-11T07:28:47.811Z,3.87
2023-08-11T07:31:50.507Z,4.20
2023-08-11T07:34:53.223Z,3.15
2023-08-11T07:37:56.337Z,1.40
2023-08-11T07:40:59.037Z,2.92
2023-08-11T07:44:01.701Z,2.40
2023-08-11T07:47:04.667Z,2.08
2023-08-11T07:50:08.019Z,2.10
2023-08-11T07:53:10.999Z,3.58
2023-08-11T07:56:14.360Z,3.38
2023-08-11T07:59:17.489Z,3.30
2023-08-11T08:02:20.370Z,2.33
2023-08-11T08:05:23.401Z,3.15
2023-08-11T08:08:26.097Z,2.97
2023-08-11T08:11:28.784Z,1.40
2023-08-11T08:14:31.655Z,3.73
2023-08-11T08:17:35.080Z,5.20
2023-08-11T08:20:37.819Z,1.98
2023-08-11T08:23:40.483Z,2.35
2023-08-11T08:26:44.723Z,1.00
2023-08-11T08:29:53.260Z,1.20
2023-08-11T08:32:56.249Z,1.50
2023-08-11T08:35:59.026Z,1.73
2023-08-11T08:39:01.762Z,2.25
2023-08-11T08:42:06.955Z,3.55
2023-08-11T08:45:10.182Z,1.67
2023-08-11T08:48:26.841Z,1.70
2023-08-11T08:51:31.465Z,2.28
2023-08-11T08:54:35.193Z,2.88
2023-08-11T08:57:38.577Z,1.90
2023-08-11T09:00:42.148Z,1.77
2023-08-11T09:03:46.022Z,4.07
2023-08-11T09:06:49.426Z,5.53
2023-08-11T09:09:52.526Z,2.42
2023-08-11T09:12:55.331Z,3.42
2023-08-11T09:16:00.835Z,1.73
2023-08-11T09:19:06.201Z,1.17
2023-08-11T09:22:14.519Z,1.67
2023-08-11T09:25:17.620Z,4.70
2023-08-11T09:28:20.325Z,8.65
2023-08-11T09:31:27.331Z,3.33
2023-08-11T09:34:30.894Z,2.85
2023-08-11T09:37:33.610Z,3.97
2023-08-11T09:40:37.122Z,1.50
2023-08-11T09:43:40.320Z,3.00
2023-08-11T09:46:44.012Z,1.40
2023-08-11T09:49:46.977Z,3.28
2023-08-11T09:52:50.080Z,1.58
2023-08-11T09:55:56.339Z,2.47
2023-08-11T09:59:03.327Z,1.75
2023-08-11T10:02:13.231Z,6.87
2023-08-11T10:05:18.444Z,5.40
2023-08-11T10:08:23.543Z,1.85
2023-08-11T10:11:29.585Z,4.15
2023-08-11T10:14:35.744Z,1.63
2023-08-11T10:17:39.818Z,1.50
2023-08-11T10:20:43.028Z,2.25
2023-08-11T10:23:46.500Z,2.47
2023-08-11T10:26:50.529Z,1.85
2023-08-11T10:29:55.326Z,1.58
2023-08-11T10:33:10.374Z,4.50
2023-08-11T10:36:17.583Z,1.95
2023-08-11T10:39:21.711Z,4.28
2023-08-11T10:42:24.746Z,3.05
2023-08-11T10:45:29.124Z,1.95
2023-08-11T10:48:33.998Z,2.03
2023-08-11T10:51:38.947Z,2.13
2023-08-11T10:54:51.071Z,3.25
2023-08-11T10:58:13.099Z,2.33
2023-08-11T11:01:16.056Z,1.45
2023-08-11T11:04:21.132Z,1.20
2023-08-11T11:07:24.837Z,3.35
2023-08-11T11:10:39.671Z,3.60
2023-08-11T11:13:52.050Z,3.83
2023-08-11T11:16:56.418Z,2.08
2023-08-11T11:20:01.105Z,1.50
2023-08-11T11:23:06.786Z,1.80
2023-08-11T11:26:09.704Z,1.30
2023-08-11T11:29:13.166Z,2.28
2023-08-11T11:32:18.079Z,3.03
2023-08-11T11:35:20.844Z,1.40
2023-08-11T11:38:23.580Z,1.58
2023-08-11T11:41:26.459Z,1.50
2023-08-11T11:44:30.590Z,2.25
2023-08-11T11:47:34.629Z,1.70
2023-08-11T11:50:37.633Z,3.50
2023-08-11T11:53:41.270Z,2.47
2023-08-11T11:56:54.214Z,4.75
2023-08-11T12:00:11.696Z,2.50
2023-08-11T12:03:16.396Z,1.83
2023-08-11T12:06:20.433Z,1.70
2023-08-11T12:09:23.257Z,3.17
2023-08-11T12:12:28.119Z,2.10
2023-08-11T12:15:32.546Z,1.67
2023-08-11T12:18:36.264Z,1.50
2023-08-11T12:21:39.075Z,2.27
2023-08-11T12:24:41.871Z,2.08
2023-08-11T12:27:45.752Z,1.70
2023-08-11T12:30:49.378Z,2.85
2023-08-11T12:33:52.201Z,1.65
2023-08-11T12:36:55.118Z,2.37
2023-08-11T12:39:57.750Z,2.70
2023-08-11T12:43:00.465Z,2.75
2023-08-11T12:46:03.316Z,2.97
2023-08-11T12:49:06.384Z,1.63
2023-08-11T12:52:09.321Z,2.13
2023-08-11T12:55:13.226Z,4.38
2023-08-11T12:58:27.575Z,2.78
2023-08-11T13:01:30.460Z,4.03
2023-08-11T13:04:33.294Z,2.85
2023-08-11T13:07:38.055Z,3.30
2023-08-11T13:10:41.076Z,1.58
2023-08-11T13:13:43.784Z,3.47
2023-08-11T13:16:47.073Z,1.88
2023-08-11T13:19:49.867Z,1.92
2023-08-11T13:22:52.650Z,2.07
2023-08-11T13:25:55.310Z,1.30
2023-08-11T13:28:59.844Z,1.83
2023-08-11T13:32:02.620Z,3.83
2023-08-11T13:35:06.459Z,2.75
2023-08-11T13:38:09.314Z,3.90
2023-08-11T13:41:12.213Z,4.15
2023-08-11T13:44:15.049Z,2.80
2023-08-11T13:47:18.343Z,1.52
2023-08-11T13:50:21.028Z,1.33
2023-08-11T13:53:23.860Z,0.80
2023-08-11T13:56:26.572Z,2.55
2023-08-11T13:59:29.274Z,3.35
2023-08-11T14:02:32.174Z,3.95
2023-08-11T14:05:35.855Z,1.67
2023-08-11T14:08:38.713Z,1.97
2023-08-11T14:11:41.411Z,4.15
2023-08-11T14:14:44.221Z,3.58
2023-08-11T14:17:47.078Z,1.27
2023-08-11T14:20:49.822Z,1.35
2023-08-11T14:23:52.566Z,2.50
2023-08-11T14:26:55.466Z,2.97
2023-08-11T14:29:58.297Z,1.90
2023-08-11T14:33:01.365Z,2.38
2023-08-11T14:39:14.885Z,1.17
2023-08-11T14:42:19.122Z,1.48
2023-08-11T14:45:21.957Z,3.88
2023-08-11T14:48:27.001Z,1.33
2023-08-11T14:51:30.845Z,2.00
2023-08-11T14:54:33.810Z,2.57
2023-08-11T14:57:36.522Z,2.08
2023-08-11T15:00:39.414Z,5.13
2023-08-11T15:03:42.869Z,2.70
2023-08-11T15:06:45.763Z,1.40
2023-08-11T15:09:48.446Z,2.17
2023-08-11T15:12:51.454Z,3.03
2023-08-11T15:15:54.277Z,1.92
2023-08-11T15:18:57.034Z,4.20
2023-08-11T15:21:59.869Z,3.72
2023-08-11T15:25:05.619Z,2.30
2023-08-11T15:28:08.358Z,0.93
2023-08-11T15:31:11.319Z,3.78
2023-08-11T15:34:14.074Z,1.65
2023-08-11T15:37:16.757Z,1.40
2023-08-11T15:40:19.461Z,2.93
2023-08-11T15:43:22.150Z,2.20
2023-08-11T15:46:24.891Z,2.17
2023-08-11T15:49:27.994Z,1.00
2023-08-11T15:52:30.756Z,2.25
2023-08-11T15:55:36.613Z,1.30
2023-08-11T15:58:41.333Z,1.35
2023-08-11T16:01:52.737Z,1.00
2023-08-11T16:05:02.483Z,3.30
2023-08-11T16:08:05.835Z,2.80
2023-08-11T16:11:08.719Z,1.90
2023-08-11T16:14:13.182Z,4.00
2023-08-11T16:17:16.022Z,1.55
2023-08-11T16:20:18.716Z,3.22
2023-08-11T16:23:21.358Z,5.28
2023-08-11T16:26:24.103Z,3.47
2023-08-11T16:29:26.860Z,4.63
2023-08-11T16:32:29.675Z,2.85
2023-08-11T16:35:32.444Z,1.83
2023-08-11T16:38:35.163Z,3.05
2023-08-11T16:41:37.919Z,3.67
2023-08-11T16:44:40.661Z,1.85
2023-08-11T16:47:43.444Z,2.40
2023-08-11T16:50:46.938Z,1.77
2023-08-11T16:53:49.796Z,4.38
2023-08-11T16:56:52.491Z,3.00
2023-08-11T16:59:55.369Z,3.08
2023-08-11T17:02:58.196Z,4.80
2023-08-11T17:06:00.981Z,2.92
2023-08-11T17:09:05.382Z,2.50
2023-08-11T17:12:08.900Z,3.80
2023-08-11T17:15:12.254Z,1.35
2023-08-11T17:18:15.058Z,2.90
2023-08-11T17:21:20.870Z,5.03
2023-08-11T17:24:23.568Z,2.75
2023-08-11T17:27:26.270Z,5.87
2023-08-11T17:30:30.967Z,4.28
2023-08-11T17:33:33.765Z,4.40
2023-08-11T17:36:36.729Z,3.20
2023-08-11T17:39:39.542Z,4.93
2023-08-11T17:42:42.485Z,1.67
2023-08-11T17:45:45.370Z,4.93
2023-08-11T17:48:47.958Z,3.15
2023-08-11T17:51:50.618Z,6.63
2023-08-11T17:54:53.469Z,3.03
2023-08-11T17:57:56.308Z,3.10
2023-08-11T18:00:59.402Z,1.55
2023-08-11T18:04:06.015Z,3.72
2023-08-11T18:07:10.072Z,3.75
2023-08-11T18:10:12.851Z,2.05
2023-08-11T18:13:15.792Z,2.07
2023-08-11T18:16:18.521Z,3.08
2023-08-11T18:19:21.192Z,2.78
2023-08-11T18:22:23.953Z,2.75
2023-08-11T18:25:26.762Z,2.53
2023-08-11T18:28:29.449Z,4.00
2023-08-11T18:31:32.151Z,3.95
2023-08-11T18:34:35.005Z,3.88
2023-08-11T18:37:37.935Z,3.72
2023-08-11T18:40:40.685Z,3.50
2023-08-11T18:43:43.520Z,3.27
2023-08-11T18:46:46.246Z,2.90
2023-08-11T18:49:49.120Z,6.93
2023-08-11T18:52:51.824Z,1.90
2023-08-11T18:55:54.604Z,6.00
2023-08-11T18:58:57.331Z,2.70
2023-08-11T19:02:00.097Z,2.13
2023-08-11T19:05:02.926Z,3.63
2023-08-11T19:08:07.725Z,2.40
2023-08-11T19:11:10.489Z,3.20
2023-08-11T19:14:13.795Z,3.40
2023-08-11T19:17:16.584Z,4.78
2023-08-11T19:20:19.613Z,3.40
2023-08-11T19:23:22.467Z,6.75
2023-08-11T19:26:25.399Z,7.00
2023-08-11T19:29:28.150Z,2.50
2023-08-11T19:32:30.886Z,2.13
2023-08-11T19:35:33.738Z,3.70
2023-08-11T19:38:42.380Z,2.03
2023-08-11T19:41:45.078Z,1.90
2023-08-11T19:44:47.848Z,3.40
2023-08-11T19:47:50.660Z,2.97
2023-08-11T19:50:53.693Z,3.20
2023-08-11T19:53:56.383Z,3.35
2023-08-11T19:56:59.126Z,3.95
2023-08-11T20:00:02.047Z,3.60
2023-08-11T20:03:16.871Z,2.95
2023-08-11T20:06:19.708Z,3.83
2023-08-11T20:09:25.252Z,2.65
2023-08-11T20:12:28.033Z,3.72
2023-08-11T20:15:31.289Z,3.33
2023-08-11T20:18:34.091Z,2.10
2023-08-11T20:21:37.103Z,3.08
2023-08-11T20:24:39.808Z,2.47
2023-08-11T20:27:42.638Z,2.72
2023-08-11T20:30:45.538Z,7.67
2023-08-11T20:33:48.667Z,3.20
2023-08-11T20:36:51.739Z,6.07
2023-08-11T20:39:54.411Z,3.35
2023-08-11T20:42:59.842Z,5.22
2023-08-11T20:46:02.647Z,3.97
2023-08-11T20:49:05.419Z,4.85
2023-08-11T20:52:08.082Z,4.85
2023-08-11T20:55:10.950Z,4.43
2023-08-11T20:58:13.672Z,2.22
2023-08-11T21:01:16.458Z,3.53
2023-08-11T21:04:19.315Z,2.60
2023-08-11T21:07:22.029Z,6.75
2023-08-11T21:10:24.740Z,3.05
2023-08-11T21:13:27.439Z,5.82
2023-08-11T21:16:30.400Z,2.43
2023-08-11T21:19:33.267Z,2.40
2023-08-11T21:22:36.013Z,6.90
2023-08-11T21:25:38.695Z,2.97
2023-08-11T21:28:41.472Z,2.67
2023-08-11T21:31:44.301Z,2.73
2023-08-11T21:34:47.104Z,2.95
2023-08-11T21:37:50.259Z,4.35
2023-08-11T21:40:52.932Z,7.32
2023-08-11T21:43:55.680Z,5.78
2023-08-11T21:46:58.601Z,6.07
2023-08-11T21:50:01.800Z,6.10
2023-08-11T21:53:17.115Z,10.52
2023-08-11T21:56:24.258Z,8.23
2023-08-11T21:59:28.543Z,10.10
2023-08-11T22:02:31.354Z,9.43
2023-08-11T22:05:34.225Z,7.25
2023-08-11T22:08:36.946Z,8.63
2023-08-11T22:11:45.400Z,7.47
2023-08-11T22:14:48.322Z,4.75
2023-08-11T22:17:51.110Z,4.27
2023-08-11T22:20:53.898Z,7.32
2023-08-11T22:23:57.167Z,6.50
2023-08-11T22:26:59.849Z,7.10
2023-08-11T22:30:03.931Z,6.78
2023-08-11T22:33:07.127Z,8.00
2023-08-11T22:36:09.920Z,5.80
2023-08-11T22:39:12.714Z,8.20
2023-08-11T22:42:15.491Z,5.10
2023-08-11T22:45:18.331Z,6.18
2023-08-11T22:48:21.269Z,11.47
2023-08-11T22:51:24.118Z,4.13
2023-08-11T22:54:26.876Z,3.95
2023-08-11T22:57:29.637Z,4.15
2023-08-11T23:00:32.521Z,6.43
2023-08-11T23:03:35.355Z,9.57
2023-08-11T23:06:38.005Z,4.15
2023-08-11T23:09:40.812Z,6.65
2023-08-11T23:12:43.685Z,7.07
2023-08-11T23:15:46.401Z,12.00
2023-08-11T23:18:49.634Z,9.77
2023-08-11T23:21:52.407Z,17.25
2023-08-11T23:24:55.406Z,14.25
2023-08-11T23:27:58.225Z,11.48
2023-08-11T23:31:00.955Z,8.23
2023-08-11T23:34:03.876Z,6.60
2023-08-11T23:37:06.680Z,5.38
2023-08-11T23:40:10.246Z,4.80
2023-08-11T23:43:13.855Z,6.13
2023-08-11T23:46:16.594Z,7.50
2023-08-11T23:49:19.416Z,9.83
2023-08-11T23:52:24.421Z,6.22
2023-08-11T23:55:28.024Z,8.52
2023-08-11T23:58:31.046Z,8.07
